Saturday, December 20, 2014, 5:13 PM EST

KPHF, Williamsburg International Airport

Location: Newport News, VA, United States Lat: 37.133
Local Time: 5:13 PM EST (22:13 GMT) Lon: -76.5
Time Zone: US/Eastern Elev: 42 ft

Show me the last for .
Show Decoded

2014-12-20 16:54 METAR KPHF 202154Z 07005KT 10SM -RA BKN100 BKN110 04/M02 A3027 RMK AO2 RAE01B54
                 SLP251 P0000 T00391017 =
2014-12-20 15:54 METAR KPHF 202054Z VRB03KT 10SM -RA SCT070 BKN120 06/M03 A3026 RMK AO2 RAB50
                 SLP248 P0000 60000 T00561028 55004 =
2014-12-20 14:54 METAR KPHF 201954Z 00000KT 10SM FEW100 SCT120 06/M02 A3026 RMK AO2 SLP245
                 T00611022 =
2014-12-20 13:54 METAR KPHF 201854Z 00000KT 10SM SCT070 OVC095 05/M02 A3026 RMK AO2 SLP248
                 T00501022 =
2014-12-20 12:54 METAR KPHF 201754Z 00000KT 10SM BKN080 OVC100 06/M02 A3027 RMK AO2 SLP252
                 T00561022 10056 20017 58016 =
2014-12-20 11:54 METAR KPHF 201654Z 00000KT 10SM SCT120 05/M02 A3030 RMK AO2 SLP260 T00501022 =
2014-12-20 10:54 METAR KPHF 201554Z 03005KT 10SM CLR 04/M03 A3032 RMK AO2 SLP268 T00441028 =
2014-12-20 09:54 METAR KPHF 201454Z 02006KT 10SM CLR 04/M03 A3032 RMK AO2 SLP267 T00391028 53008
                 =
2014-12-20 08:54 METAR KPHF 201354Z 01004KT 10SM CLR 03/M03 A3032 RMK AO2 SLP268 T00281033 =
2014-12-20 07:54 METAR KPHF 201254Z 02004KT 10SM CLR 02/M04 A3029 RMK AO2 SLP258 T00171039 =
2014-12-20 06:54 METAR KPHF 201154Z 36004KT 10SM CLR 02/M04 A3030 RMK AO2 SLP259 T00171039 10017
                 21006 53012 =
2014-12-20 05:54 METAR KPHF 201054Z 36003KT 10SM CLR 02/M04 A3027 RMK AO2 SLP252 T00171039 =
2014-12-20 04:54 METAR KPHF 200954Z 01004KT 10SM CLR 01/M04 A3025 RMK AO2 SLP243 T00111039 =
2014-12-20 03:54 METAR KPHF 200854Z 36003KT 10SM CLR 02/M04 A3026 RMK AO2 SLP248 T00171039 50007
                 =
2014-12-20 02:54 METAR KPHF 200754Z 33003KT 10SM CLR 01/M04 A3027 RMK AO2 SLP250 T00111044 =
2014-12-20 01:54 METAR KPHF 200654Z 01005KT 10SM CLR 01/M04 A3025 RMK AO2 SLP243 T00111039 =
2014-12-20 00:54 METAR KPHF 200554Z 00000KT 10SM CLR M01/M04 A3024 RMK AO2 SLP240 60000 T10061044
                 10033 21011 50002 =
2014-12-19 23:54 METAR KPHF 200454Z 35005KT 10SM CLR 00/M04 A3025 RMK AO2 SLP242 T00001044
                 400941022 =
2014-12-19 22:54 METAR KPHF 200354Z 00000KT 10SM CLR 01/M04 A3025 RMK AO2 SLP245 T00061044 =
2014-12-19 21:54 METAR KPHF 200254Z 35003KT 10SM CLR 02/M04 A3023 RMK AO2 SLP238 60000 T00171039
                 51010 =
2014-12-19 20:54 METAR KPHF 200154Z AUTO 02003KT 10SM CLR 03/M03 A3022 RMK AO2 RAB10E14 SLP233
                 P0000 T00281033 TSNO =
2014-12-19 19:54 METAR KPHF 200054Z AUTO 02005KT 10SM CLR 03/M04 A3022 RMK AO2 SLP234 T00281039
                 TSNO =
2014-12-19 18:54 METAR KPHF 192354Z AUTO 01004KT 10SM CLR 03/M03 A3020 RMK AO2 RAE36 SLP228 P0000
                 60000 T00331033 10094 20011 53017 TSNO =
2014-12-19 17:54 METAR KPHF 192254Z AUTO 00000KT 10SM -RA CLR 03/M03 A3018 RMK AO2 RAB35 SLP220
                 P0000 T00281028 TSNO =

Support USWX by starting your Amazon purchase here.